sensor_id;sensor_type;location;lat;lon;timestamp;pressure;altitude;pressure_sealevel;temperature;humidity
40315;BME280;26021;45.640;11.302;2023-03-19T00:01:31;99046.16;;;7.30;100.00
40315;BME280;26021;45.640;11.302;2023-03-19T00:03:56;99034.16;;;7.26;100.00
40315;BME280;26021;45.640;11.302;2023-03-19T00:06:22;99030.03;;;6.96;100.00
40315;BME280;26021;45.640;11.302;2023-03-19T00:08:47;99053.81;;;6.97;100.00
40315;BME280;26021;45.640;11.302;2023-03-19T00:11:13;99038.84;;;6.96;100.00
40315;BME280;26021;45.640;11.302;2023-03-19T00:13:38;99000.22;;;6.65;100.00
40315;BME280;26021;45.640;11.302;2023-03-19T00:16:09;99033.97;;;6.92;100.00
40315;BME280;26021;45.640;11.302;2023-03-19T00:18:34;99044.00;;;6.98;100.00
40315;BME280;26021;45.640;11.302;2023-03-19T00:21:00;99035.19;;;6.97;100.00
40315;BME280;26021;45.640;11.302;2023-03-19T00:23:25;99024.31;;;6.91;100.00
40315;BME280;26021;45.640;11.302;2023-03-19T00:25:52;99023.53;;;6.81;100.00
40315;BME280;26021;45.640;11.302;2023-03-19T00:28:18;99019.72;;;6.56;100.00
40315;BME280;26021;45.640;11.302;2023-03-19T00:30:44;98942.19;;;6.15;100.00
40315;BME280;26021;45.640;11.302;2023-03-19T00:33:09;99012.28;;;6.69;100.00
40315;BME280;26021;45.640;11.302;2023-03-19T00:35:35;99019.28;;;6.88;100.00
40315;BME280;26021;45.640;11.302;2023-03-19T00:38:00;98968.03;;;6.68;100.00
40315;BME280;26021;45.640;11.302;2023-03-19T00:40:26;99018.22;;;6.81;100.00
40315;BME280;26021;45.640;11.302;2023-03-19T00:42:51;99017.28;;;6.72;100.00
40315;BME280;26021;45.640;11.302;2023-03-19T00:45:17;98933.03;;;6.27;100.00
40315;BME280;26021;45.640;11.302;2023-03-19T00:47:42;99020.50;;;6.76;100.00
40315;BME280;26021;45.640;11.302;2023-03-19T00:50:08;98987.03;;;6.46;100.00
40315;BME280;26021;45.640;11.302;2023-03-19T00:52:34;99019.47;;;6.49;100.00
40315;BME280;26021;45.640;11.302;2023-03-19T00:54:59;99023.25;;;6.47;100.00
40315;BME280;26021;45.640;11.302;2023-03-19T00:57:24;99019.63;;;6.48;100.00
40315;BME280;26021;45.640;11.302;2023-03-19T00:59:50;99008.63;;;6.33;100.00
40315;BME280;26021;45.640;11.302;2023-03-19T01:02:15;99026.09;;;6.73;100.00
40315;BME280;26021;45.640;11.302;2023-03-19T01:04:41;99030.88;;;6.69;100.00
40315;BME280;26021;45.640;11.302;2023-03-19T01:07:07;99022.44;;;6.46;100.00
40315;BME280;26021;45.640;11.302;2023-03-19T01:09:32;99018.97;;;6.63;100.00
40315;BME280;26021;45.640;11.302;2023-03-19T01:11:57;99017.91;;;6.56;100.00
40315;BME280;26021;45.640;11.302;2023-03-19T01:14:23;99012.13;;;6.33;100.00
40315;BME280;26021;45.640;11.302;2023-03-19T01:16:49;99002.44;;;6.42;100.00
40315;BME280;26021;45.640;11.302;2023-03-19T01:19:14;99013.19;;;6.50;100.00
40315;BME280;26021;45.640;11.302;2023-03-19T01:21:40;98973.47;;;6.21;100.00
40315;BME280;26021;45.640;11.302;2023-03-19T01:24:10;99004.34;;;6.22;100.00
40315;BME280;26021;45.640;11.302;2023-03-19T01:26:36;99001.34;;;6.35;100.00
40315;BME280;26021;45.640;11.302;2023-03-19T01:29:01;98960.88;;;6.23;100.00
40315;BME280;26021;45.640;11.302;2023-03-19T01:31:27;98991.81;;;6.42;100.00
40315;BME280;26021;45.640;11.302;2023-03-19T01:33:52;98989.22;;;6.32;100.00
40315;BME280;26021;45.640;11.302;2023-03-19T01:36:17;98982.13;;;6.51;100.00
40315;BME280;26021;45.640;11.302;2023-03-19T01:38:43;98919.25;;;6.14;100.00
40315;BME280;26021;45.640;11.302;2023-03-19T01:41:08;98960.78;;;6.43;100.00
40315;BME280;26021;45.640;11.302;2023-03-19T01:43:34;98970.84;;;6.39;100.00
40315;BME280;26021;45.640;11.302;2023-03-19T01:46:33;98983.59;;;6.35;100.00
40315;BME280;26021;45.640;11.302;2023-03-19T01:48:59;98982.66;;;6.27;100.00
40315;BME280;26021;45.640;11.302;2023-03-19T01:51:29;98980.09;;;6.35;100.00
40315;BME280;26021;45.640;11.302;2023-03-19T01:53:59;98882.63;;;5.71;100.00
40315;BME280;26021;45.640;11.302;2023-03-19T01:56:29;98982.66;;;6.27;100.00
40315;BME280;26021;45.640;11.302;2023-03-19T01:59:06;98977.41;;;6.45;100.00
40315;BME280;26021;45.640;11.302;2023-03-19T02:01:42;98671.69;;;4.65;100.00
40315;BME280;26021;45.640;11.302;2023-03-19T02:04:10;98861.31;;;5.63;100.00
40315;BME280;26021;45.640;11.302;2023-03-19T02:06:37;98898.75;;;6.07;100.00
40315;BME280;26021;45.640;11.302;2023-03-19T02:09:03;98957.22;;;6.24;100.00
40315;BME280;26021;45.640;11.302;2023-03-19T02:11:29;98929.34;;;6.11;100.00
40315;BME280;26021;45.640;11.302;2023-03-19T02:13:55;98966.94;;;6.43;100.00
40315;BME280;26021;45.640;11.302;2023-03-19T02:16:20;98968.25;;;6.29;100.00
40315;BME280;26021;45.640;11.302;2023-03-19T02:18:46;98931.06;;;6.02;100.00
40315;BME280;26021;45.640;11.302;2023-03-19T02:21:14;98960.91;;;6.41;100.00
40315;BME280;26021;45.640;11.302;2023-03-19T02:26:14;98969.13;;;6.48;100.00
40315;BME280;26021;45.640;11.302;2023-03-19T02:28:41;98963.19;;;6.36;100.00
40315;BME280;26021;45.640;11.302;2023-03-19T02:31:09;98946.53;;;6.07;100.00
40315;BME280;26021;45.640;11.302;2023-03-19T02:33:35;98966.44;;;6.30;100.00
40315;BME280;26021;45.640;11.302;2023-03-19T02:36:02;98909.53;;;6.05;100.00
40315;BME280;26021;45.640;11.302;2023-03-19T02:38:31;98963.22;;;6.54;100.00
40315;BME280;26021;45.640;11.302;2023-03-19T02:41:05;98976.06;;;6.31;100.00
40315;BME280;26021;45.640;11.302;2023-03-19T02:43:32;98967.41;;;6.29;100.00
40315;BME280;26021;45.640;11.302;2023-03-19T02:45:59;98965.69;;;6.37;100.00
40315;BME280;26021;45.640;11.302;2023-03-19T02:48:25;98947.97;;;6.28;100.00
40315;BME280;26021;45.640;11.302;2023-03-19T02:50:51;98967.38;;;6.38;100.00
40315;BME280;26021;45.640;11.302;2023-03-19T02:53:16;98971.34;;;6.25;100.00
40315;BME280;26021;45.640;11.302;2023-03-19T02:55:42;98880.88;;;5.52;100.00
40315;BME280;26021;45.640;11.302;2023-03-19T02:58:07;98971.28;;;6.07;100.00
40315;BME280;26021;45.640;11.302;2023-03-19T03:00:33;98818.44;;;5.21;100.00
40315;BME280;26021;45.640;11.302;2023-03-19T03:02:59;98770.88;;;5.00;100.00
40315;BME280;26021;45.640;11.302;2023-03-19T03:05:26;98973.56;;;6.29;100.00
40315;BME280;26021;45.640;11.302;2023-03-19T03:07:51;98970.13;;;6.19;100.00
40315;BME280;26021;45.640;11.302;2023-03-19T03:10:18;98930.63;;;5.87;100.00
40315;BME280;26021;45.640;11.302;2023-03-19T03:12:43;98954.69;;;5.95;100.00
40315;BME280;26021;45.640;11.302;2023-03-19T03:15:09;98982.47;;;6.38;100.00
40315;BME280;26021;45.640;11.302;2023-03-19T03:17:41;98937.50;;;5.80;100.00
40315;BME280;26021;45.640;11.302;2023-03-19T03:20:08;98974.22;;;6.04;100.00
40315;BME280;26021;45.640;11.302;2023-03-19T03:22:35;98997.47;;;6.29;100.00
40315;BME280;26021;45.640;11.302;2023-03-19T03:25:01;98944.28;;;6.12;100.00
40315;BME280;26021;45.640;11.302;2023-03-19T03:27:26;98951.63;;;6.27;100.00
40315;BME280;26021;45.640;11.302;2023-03-19T03:29:52;98989.59;;;6.37;100.00
40315;BME280;26021;45.640;11.302;2023-03-19T03:32:17;98983.91;;;6.32;100.00
40315;BME280;26021;45.640;11.302;2023-03-19T03:34:42;98983.59;;;6.35;100.00
40315;BME280;26021;45.640;11.302;2023-03-19T03:37:10;98985.03;;;6.30;100.00
40315;BME280;26021;45.640;11.302;2023-03-19T03:39:35;98976.75;;;6.33;100.00
40315;BME280;26021;45.640;11.302;2023-03-19T03:42:02;98979.53;;;6.04;100.00
40315;BME280;26021;45.640;11.302;2023-03-19T03:44:27;98972.28;;;5.96;100.00
40315;BME280;26021;45.640;11.302;2023-03-19T03:46:53;98900.44;;;5.51;100.00
40315;BME280;26021;45.640;11.302;2023-03-19T03:49:18;98982.47;;;6.01;100.00
40315;BME280;26021;45.640;11.302;2023-03-19T03:51:43;98984.22;;;6.20;100.00
40315;BME280;26021;45.640;11.302;2023-03-19T03:54:09;98969.59;;;6.06;100.00
40315;BME280;26021;45.640;11.302;2023-03-19T03:56:34;98986.94;;;6.37;100.00
40315;BME280;26021;45.640;11.302;2023-03-19T03:59:00;98979.53;;;6.41;100.00
40315;BME280;26021;45.640;11.302;2023-03-19T04:01:26;98983.91;;;6.32;100.00
40315;BME280;26021;45.640;11.302;2023-03-19T04:03:52;98980.91;;;6.08;100.00
40315;BME280;26021;45.640;11.302;2023-03-19T04:06:19;98986.63;;;6.13;100.00
40315;BME280;26021;45.640;11.302;2023-03-19T04:08:45;98992.00;;;6.31;100.00
40315;BME280;26021;45.640;11.302;2023-03-19T04:11:11;98980.41;;;6.32;100.00
40315;BME280;26021;45.640;11.302;2023-03-19T04:13:37;98985.41;;;6.35;100.00
40315;BME280;26021;45.640;11.302;2023-03-19T04:16:04;98903.97;;;5.98;100.00
40315;BME280;26021;45.640;11.302;2023-03-19T04:18:29;98990.50;;;6.56;100.00
40315;BME280;26021;45.640;11.302;2023-03-19T04:20:55;98992.75;;;6.51;100.00
40315;BME280;26021;45.640;11.302;2023-03-19T04:23:22;99000.09;;;6.39;100.00
40315;BME280;26021;45.640;11.302;2023-03-19T04:25:47;99000.88;;;6.49;100.00
40315;BME280;26021;45.640;11.302;2023-03-19T04:28:13;98807.81;;;5.30;100.00
40315;BME280;26021;45.640;11.302;2023-03-19T04:30:38;99005.44;;;6.57;100.00
40315;BME280;26021;45.640;11.302;2023-03-19T04:33:04;99000.69;;;6.60;100.00
40315;BME280;26021;45.640;11.302;2023-03-19T04:35:29;99019.28;;;6.60;100.00
40315;BME280;26021;45.640;11.302;2023-03-19T04:37:55;99006.72;;;6.53;100.00
40315;BME280;26021;45.640;11.302;2023-03-19T04:40:20;98963.63;;;6.31;100.00
40315;BME280;26021;45.640;11.302;2023-03-19T04:42:46;99003.31;;;6.70;100.00
40315;BME280;26021;45.640;11.302;2023-03-19T04:45:11;98763.91;;;4.99;100.00
40315;BME280;26021;45.640;11.302;2023-03-19T04:47:37;99008.75;;;6.41;100.00
40315;BME280;26021;45.640;11.302;2023-03-19T04:50:03;99014.31;;;6.48;100.00
40315;BME280;26021;45.640;11.302;2023-03-19T04:52:28;98998.00;;;6.70;100.00
40315;BME280;26021;45.640;11.302;2023-03-19T04:54:54;98911.28;;;6.14;100.00
40315;BME280;26021;45.640;11.302;2023-03-19T04:57:19;99017.00;;;6.75;100.00
40315;BME280;26021;45.640;11.302;2023-03-19T04:59:45;98965.00;;;6.35;100.00
40315;BME280;26021;45.640;11.302;2023-03-19T05:02:11;99024.28;;;6.73;100.00
40315;BME280;26021;45.640;11.302;2023-03-19T05:04:37;99007.38;;;6.92;100.00
40315;BME280;26021;45.640;11.302;2023-03-19T05:07:02;99016.97;;;7.03;100.00
40315;BME280;26021;45.640;11.302;2023-03-19T05:09:28;99025.78;;;7.03;100.00
40315;BME280;26021;45.640;11.302;2023-03-19T05:11:55;99004.50;;;7.03;100.00
40315;BME280;26021;45.640;11.302;2023-03-19T05:14:21;99021.66;;;6.91;100.00
40315;BME280;26021;45.640;11.302;2023-03-19T05:16:46;99019.75;;;6.83;100.00
40315;BME280;26021;45.640;11.302;2023-03-19T05:19:12;98852.91;;;5.67;100.00
40315;BME280;26021;45.640;11.302;2023-03-19T05:21:38;99020.81;;;6.63;100.00
40315;BME280;26021;45.640;11.302;2023-03-19T05:24:03;99022.47;;;6.64;100.00
40315;BME280;26021;45.640;11.302;2023-03-19T05:26:29;99031.44;;;6.63;100.00
40315;BME280;26021;45.640;11.302;2023-03-19T05:28:55;99012.53;;;6.66;100.00
40315;BME280;26021;45.640;11.302;2023-03-19T05:31:20;99030.22;;;6.85;100.00
40315;BME280;26021;45.640;11.302;2023-03-19T05:33:45;99031.53;;;6.98;100.00
40315;BME280;26021;45.640;11.302;2023-03-19T05:36:11;99017.84;;;6.76;100.00
40315;BME280;26021;45.640;11.302;2023-03-19T05:38:37;99040.38;;;6.72;100.00
40315;BME280;26021;45.640;11.302;2023-03-19T05:41:06;99017.66;;;6.50;100.00
40315;BME280;26021;45.640;11.302;2023-03-19T05:43:32;99045.56;;;6.63;100.00
40315;BME280;26021;45.640;11.302;2023-03-19T05:45:58;99053.53;;;6.73;100.00
40315;BME280;26021;45.640;11.302;2023-03-19T05:48:24;99051.06;;;6.89;100.00
40315;BME280;26021;45.640;11.302;2023-03-19T05:50:50;99015.34;;;6.64;100.00
40315;BME280;26021;45.640;11.302;2023-03-19T05:53:16;99050.97;;;6.81;100.00
40315;BME280;26021;45.640;11.302;2023-03-19T05:55:42;99051.66;;;6.83;100.00
40315;BME280;26021;45.640;11.302;2023-03-19T05:58:07;99054.50;;;7.17;100.00
40315;BME280;26021;45.640;11.302;2023-03-19T06:00:33;99059.00;;;7.17;100.00
40315;BME280;26021;45.640;11.302;2023-03-19T06:02:58;99063.63;;;7.15;100.00
40315;BME280;26021;45.640;11.302;2023-03-19T06:05:24;99055.13;;;7.11;100.00
40315;BME280;26021;45.640;11.302;2023-03-19T06:07:49;99021.28;;;7.04;100.00
40315;BME280;26021;45.640;11.302;2023-03-19T06:10:15;99051.84;;;7.17;100.00
40315;BME280;26021;45.640;11.302;2023-03-19T06:12:40;99067.75;;;7.27;100.00
40315;BME280;26021;45.640;11.302;2023-03-19T06:15:06;98994.53;;;6.87;100.00
40315;BME280;26021;45.640;11.302;2023-03-19T06:17:33;99068.94;;;7.60;100.00
40315;BME280;26021;45.640;11.302;2023-03-19T06:19:59;99065.06;;;7.54;100.00
40315;BME280;26021;45.640;11.302;2023-03-19T06:22:25;99065.81;;;7.64;100.00
40315;BME280;26021;45.640;11.302;2023-03-19T06:24:51;99038.22;;;7.48;100.00
40315;BME280;26021;45.640;11.302;2023-03-19T06:27:16;99073.81;;;7.64;100.00
40315;BME280;26021;45.640;11.302;2023-03-19T06:29:42;98971.44;;;7.06;100.00
40315;BME280;26021;45.640;11.302;2023-03-19T06:32:08;99078.88;;;7.76;100.00
40315;BME280;26021;45.640;11.302;2023-03-19T06:34:34;99075.97;;;7.87;100.00
40315;BME280;26021;45.640;11.302;2023-03-19T06:36:59;99086.72;;;7.77;100.00
40315;BME280;26021;45.640;11.302;2023-03-19T06:39:26;99007.72;;;7.60;100.00
40315;BME280;26021;45.640;11.302;2023-03-19T06:41:52;99087.06;;;8.00;100.00
40315;BME280;26021;45.640;11.302;2023-03-19T06:44:18;99086.66;;;8.13;100.00
40315;BME280;26021;45.640;11.302;2023-03-19T06:46:43;99078.56;;;7.96;100.00
40315;BME280;26021;45.640;11.302;2023-03-19T06:49:09;99082.56;;;8.01;100.00
40315;BME280;26021;45.640;11.302;2023-03-19T06:51:35;99061.00;;;7.86;100.00
40315;BME280;26021;45.640;11.302;2023-03-19T06:54:00;99052.00;;;7.87;100.00
40315;BME280;26021;45.640;11.302;2023-03-19T06:56:26;99083.94;;;8.05;100.00
40315;BME280;26021;45.640;11.302;2023-03-19T06:58:52;99082.03;;;8.15;100.00
40315;BME280;26021;45.640;11.302;2023-03-19T07:01:17;99074.47;;;8.28;100.00
40315;BME280;26021;45.640;11.302;2023-03-19T07:03:43;99015.09;;;7.92;100.00
40315;BME280;26021;45.640;11.302;2023-03-19T07:06:09;99108.13;;;8.29;100.00
40315;BME280;26021;45.640;11.302;2023-03-19T07:08:34;99071.63;;;8.04;100.00
40315;BME280;26021;45.640;11.302;2023-03-19T07:11:04;99102.28;;;8.25;100.00
40315;BME280;26021;45.640;11.302;2023-03-19T07:13:30;99102.34;;;8.59;100.00
40315;BME280;26021;45.640;11.302;2023-03-19T07:15:57;99110.34;;;8.59;100.00
40315;BME280;26021;45.640;11.302;2023-03-19T07:18:23;99109.13;;;8.80;100.00
40315;BME280;26021;45.640;11.302;2023-03-19T07:20:48;99116.75;;;8.75;100.00
40315;BME280;26021;45.640;11.302;2023-03-19T07:23:14;99111.69;;;8.64;100.00
40315;BME280;26021;45.640;11.302;2023-03-19T07:25:40;99121.22;;;8.66;100.00
40315;BME280;26021;45.640;11.302;2023-03-19T07:28:05;99094.19;;;8.61;100.00
40315;BME280;26021;45.640;11.302;2023-03-19T07:30:31;99114.56;;;8.70;100.00
40315;BME280;26021;45.640;11.302;2023-03-19T07:32:57;99116.00;;;8.90;100.00
40315;BME280;26021;45.640;11.302;2023-03-19T07:35:22;99117.41;;;8.95;100.00
40315;BME280;26021;45.640;11.302;2023-03-19T07:37:47;99113.59;;;9.05;100.00
40315;BME280;26021;45.640;11.302;2023-03-19T07:40:13;99118.13;;;9.13;100.00
40315;BME280;26021;45.640;11.302;2023-03-19T07:42:39;99121.97;;;9.10;100.00
40315;BME280;26021;45.640;11.302;2023-03-19T07:45:05;99064.63;;;8.80;100.00
40315;BME280;26021;45.640;11.302;2023-03-19T07:47:31;99039.81;;;8.88;100.00
40315;BME280;26021;45.640;11.302;2023-03-19T07:49:57;99121.38;;;9.33;100.00
40315;BME280;26021;45.640;11.302;2023-03-19T07:52:23;99123.44;;;9.55;100.00
40315;BME280;26021;45.640;11.302;2023-03-19T07:54:49;99128.19;;;10.10;100.00
40315;BME280;26021;45.640;11.302;2023-03-19T07:57:15;99118.34;;;9.94;100.00
40315;BME280;26021;45.640;11.302;2023-03-19T07:59:41;99121.88;;;10.27;100.00
40315;BME280;26021;45.640;11.302;2023-03-19T08:02:12;99121.50;;;10.06;100.00
40315;BME280;26021;45.640;11.302;2023-03-19T08:04:38;99117.03;;;10.47;100.00
40315;BME280;26021;45.640;11.302;2023-03-19T08:07:04;99129.69;;;10.12;100.00
40315;BME280;26021;45.640;11.302;2023-03-19T08:09:29;99130.72;;;10.28;100.00
40315;BME280;26021;45.640;11.302;2023-03-19T08:11:55;99130.56;;;10.54;100.00
40315;BME280;26021;45.640;11.302;2023-03-19T08:14:20;99099.97;;;10.56;100.00
40315;BME280;26021;45.640;11.302;2023-03-19T08:16:49;99138.25;;;10.24;100.00
40315;BME280;26021;45.640;11.302;2023-03-19T08:19:15;99073.41;;;9.90;100.00
40315;BME280;26021;45.640;11.302;2023-03-19T08:21:41;99133.91;;;10.47;100.00
40315;BME280;26021;45.640;11.302;2023-03-19T08:24:07;99130.53;;;10.62;100.00
40315;BME280;26021;45.640;11.302;2023-03-19T08:26:32;99123.16;;;10.72;100.00
40315;BME280;26021;45.640;11.302;2023-03-19T08:28:59;99085.78;;;10.31;100.00
40315;BME280;26021;45.640;11.302;2023-03-19T08:31:24;99125.13;;;10.86;100.00
40315;BME280;26021;45.640;11.302;2023-03-19T08:33:49;99123.59;;;10.92;100.00
40315;BME280;26021;45.640;11.302;2023-03-19T08:36:15;99107.88;;;10.89;100.00
40315;BME280;26021;45.640;11.302;2023-03-19T08:38:41;99124.84;;;11.12;100.00
40315;BME280;26021;45.640;11.302;2023-03-19T08:41:08;99121.25;;;10.97;100.00
40315;BME280;26021;45.640;11.302;2023-03-19T08:43:34;99121.88;;;11.07;100.00
40315;BME280;26021;45.640;11.302;2023-03-19T08:46:01;99128.00;;;11.24;100.00
40315;BME280;26021;45.640;11.302;2023-03-19T08:48:27;99058.47;;;10.68;100.00
40315;BME280;26021;45.640;11.302;2023-03-19T08:50:54;99132.56;;;11.15;100.00
40315;BME280;26021;45.640;11.302;2023-03-19T08:53:20;99139.00;;;11.37;100.00
40315;BME280;26021;45.640;11.302;2023-03-19T08:55:54;99137.53;;;11.26;100.00
40315;BME280;26021;45.640;11.302;2023-03-19T08:58:20;99140.97;;;11.43;100.00
40315;BME280;26021;45.640;11.302;2023-03-19T09:00:46;99136.06;;;11.55;100.00
40315;BME280;26021;45.640;11.302;2023-03-19T09:03:12;99068.91;;;10.94;100.00
40315;BME280;26021;45.640;11.302;2023-03-19T09:05:37;99156.56;;;11.39;100.00
40315;BME280;26021;45.640;11.302;2023-03-19T09:08:03;99085.91;;;10.62;100.00
40315;BME280;26021;45.640;11.302;2023-03-19T09:10:28;99157.78;;;11.29;100.00
40315;BME280;26021;45.640;11.302;2023-03-19T09:12:54;99156.28;;;11.26;100.00
40315;BME280;26021;45.640;11.302;2023-03-19T09:15:19;99163.94;;;11.37;100.00
40315;BME280;26021;45.640;11.302;2023-03-19T09:17:45;99173.03;;;11.59;100.00
40315;BME280;26021;45.640;11.302;2023-03-19T09:20:11;99163.09;;;11.37;100.00
40315;BME280;26021;45.640;11.302;2023-03-19T09:22:37;99162.84;;;11.55;100.00
40315;BME280;26021;45.640;11.302;2023-03-19T09:25:02;99101.28;;;11.16;100.00
40315;BME280;26021;45.640;11.302;2023-03-19T09:27:28;99155.88;;;11.45;100.00
40315;BME280;26021;45.640;11.302;2023-03-19T09:29:53;99144.75;;;11.57;100.00
40315;BME280;26021;45.640;11.302;2023-03-19T09:32:19;99162.28;;;11.67;100.00
40315;BME280;26021;45.640;11.302;2023-03-19T09:34:45;99159.16;;;11.87;100.00
40315;BME280;26021;45.640;11.302;2023-03-19T09:37:12;99158.88;;;11.73;100.00
40315;BME280;26021;45.640;11.302;2023-03-19T09:39:37;99157.47;;;11.94;100.00
40315;BME280;26021;45.640;11.302;2023-03-19T09:44:52;99162.53;;;12.12;98.31
40315;BME280;26021;45.640;11.302;2023-03-19T09:47:34;99164.03;;;11.91;97.39
40315;BME280;26021;45.640;11.302;2023-03-19T09:50:12;99138.25;;;11.51;100.00
40315;BME280;26021;45.640;11.302;2023-03-19T09:52:45;99164.47;;;11.33;100.00
40315;BME280;26021;45.640;11.302;2023-03-19T09:57:43;99166.13;;;11.65;98.93
40315;BME280;26021;45.640;11.302;2023-03-19T10:00:24;99165.78;;;11.37;100.00
40315;BME280;26021;45.640;11.302;2023-03-19T10:03:14;99160.13;;;11.32;100.00
40315;BME280;26021;45.640;11.302;2023-03-19T10:06:09;99162.16;;;11.61;100.00
40315;BME280;26021;45.640;11.302;2023-03-19T10:16:57;99167.69;;;11.59;97.92
40315;BME280;26021;45.640;11.302;2023-03-19T10:19:36;99158.16;;;11.57;95.59
40315;BME280;26021;45.640;11.302;2023-03-19T10:22:04;99169.88;;;11.56;95.17
40315;BME280;26021;45.640;11.302;2023-03-19T10:24:39;99157.50;;;11.55;94.66
40315;BME280;26021;45.640;11.302;2023-03-19T10:27:16;99154.09;;;11.61;91.88
40315;BME280;26021;45.640;11.302;2023-03-19T10:29:42;99159.03;;;11.80;92.28
40315;BME280;26021;45.640;11.302;2023-03-19T10:32:35;99153.78;;;12.18;91.60
40315;BME280;26021;45.640;11.302;2023-03-19T10:35:23;99084.34;;;12.23;84.82
40315;BME280;26021;45.640;11.302;2023-03-19T10:37:53;99143.94;;;12.70;85.77
40315;BME280;26021;45.640;11.302;2023-03-19T10:40:25;99137.03;;;12.53;80.38
40315;BME280;26021;45.640;11.302;2023-03-19T10:43:10;99076.81;;;12.56;82.07
40315;BME280;26021;45.640;11.302;2023-03-19T10:45:37;99145.28;;;13.19;81.55
40315;BME280;26021;45.640;11.302;2023-03-19T10:48:03;99139.06;;;13.48;76.25
40315;BME280;26021;45.640;11.302;2023-03-19T10:50:44;99138.50;;;13.38;74.94
40315;BME280;26021;45.640;11.302;2023-03-19T10:55:43;99116.53;;;13.34;75.24
40315;BME280;26021;45.640;11.302;2023-03-19T10:58:19;99118.59;;;13.17;75.99
40315;BME280;26021;45.640;11.302;2023-03-19T11:00:48;99126.66;;;13.32;75.17
40315;BME280;26021;45.640;11.302;2023-03-19T11:03:48;99117.22;;;13.21;75.58
40315;BME280;26021;45.640;11.302;2023-03-19T11:06:22;99126.19;;;13.28;77.16
40315;BME280;26021;45.640;11.302;2023-03-19T11:08:51;99116.72;;;13.32;76.35
40315;BME280;26021;45.640;11.302;2023-03-19T11:11:23;99117.00;;;13.38;77.47
40315;BME280;26021;45.640;11.302;2023-03-19T11:13:48;99122.94;;;13.48;77.49
40315;BME280;26021;45.640;11.302;2023-03-19T11:16:14;99100.75;;;13.60;76.76
40315;BME280;26021;45.640;11.302;2023-03-19T11:18:40;99076.44;;;13.47;77.21
40315;BME280;26021;45.640;11.302;2023-03-19T11:21:18;99102.53;;;13.53;78.60
40315;BME280;26021;45.640;11.302;2023-03-19T11:23:51;99098.38;;;13.36;78.21
40315;BME280;26021;45.640;11.302;2023-03-19T11:26:19;99093.56;;;13.31;76.91
40315;BME280;26021;45.640;11.302;2023-03-19T11:28:49;99098.50;;;13.28;78.57
40315;BME280;26021;45.640;11.302;2023-03-19T11:31:23;99102.00;;;13.28;80.25
40315;BME280;26021;45.640;11.302;2023-03-19T11:34:22;99099.06;;;13.38;80.80
40315;BME280;26021;45.640;11.302;2023-03-19T11:45:09;99071.25;;;14.10;78.92
40315;BME280;26021;45.640;11.302;2023-03-19T11:47:43;99068.25;;;13.98;79.62
40315;BME280;26021;45.640;11.302;2023-03-19T11:56:04;99058.66;;;14.38;79.23
40315;BME280;26021;45.640;11.302;2023-03-19T12:04:35;99059.50;;;14.39;78.38
40315;BME280;26021;45.640;11.302;2023-03-19T12:07:23;99051.44;;;14.67;76.43
40315;BME280;26021;45.640;11.302;2023-03-19T12:20:51;99035.13;;;15.16;75.47
40315;BME280;26021;45.640;11.302;2023-03-19T12:28:29;99023.28;;;14.69;75.18
40315;BME280;26021;45.640;11.302;2023-03-19T12:33:48;99003.09;;;14.86;76.22
40315;BME280;26021;45.640;11.302;2023-03-19T12:36:23;99022.31;;;15.24;75.58
40315;BME280;26021;45.640;11.302;2023-03-19T12:38:53;99026.25;;;15.35;73.02
40315;BME280;26021;45.640;11.302;2023-03-19T12:41:24;99012.81;;;15.48;74.32
40315;BME280;26021;45.640;11.302;2023-03-19T12:48:51;98953.94;;;15.52;70.72
40315;BME280;26021;45.640;11.302;2023-03-19T12:51:25;99016.25;;;16.10;72.82
40315;BME280;26021;45.640;11.302;2023-03-19T12:53:58;98853.16;;;15.00;71.65
40315;BME280;26021;45.640;11.302;2023-03-19T12:56:40;99000.06;;;15.83;72.64
40315;BME280;26021;45.640;11.302;2023-03-19T12:59:28;99000.47;;;15.80;69.45
40315;BME280;26021;45.640;11.302;2023-03-19T13:04:56;98995.50;;;15.71;72.07
40315;BME280;26021;45.640;11.302;2023-03-19T13:07:47;98997.41;;;15.22;73.37
40315;BME280;26021;45.640;11.302;2023-03-19T13:10:18;98981.88;;;15.24;73.33
40315;BME280;26021;45.640;11.302;2023-03-19T13:12:45;98989.81;;;15.52;73.21
40315;BME280;26021;45.640;11.302;2023-03-19T13:15:18;98978.81;;;15.47;72.21
40315;BME280;26021;45.640;11.302;2023-03-19T13:23:33;98949.03;;;15.95;70.09
40315;BME280;26021;45.640;11.302;2023-03-19T13:26:02;98974.75;;;16.11;68.48
40315;BME280;26021;45.640;11.302;2023-03-19T13:28:36;98926.31;;;15.10;71.43
40315;BME280;26021;45.640;11.302;2023-03-19T13:31:06;98973.75;;;15.11;72.29
40315;BME280;26021;45.640;11.302;2023-03-19T13:33:33;98977.66;;;14.96;74.26
40315;BME280;26021;45.640;11.302;2023-03-19T13:36:04;98972.72;;;15.06;73.97
40315;BME280;26021;45.640;11.302;2023-03-19T13:38:39;98965.41;;;14.93;73.41
40315;BME280;26021;45.640;11.302;2023-03-19T13:43:56;98955.53;;;15.07;74.38
40315;BME280;26021;45.640;11.302;2023-03-19T13:48:51;98972.59;;;15.47;72.61
40315;BME280;26021;45.640;11.302;2023-03-19T13:56:20;98964.91;;;15.31;72.77
40315;BME280;26021;45.640;11.302;2023-03-19T13:58:50;98943.44;;;14.89;72.41
40315;BME280;26021;45.640;11.302;2023-03-19T14:03:56;98963.69;;;14.79;75.62
40315;BME280;26021;45.640;11.302;2023-03-19T14:06:40;98959.69;;;14.68;75.36
40315;BME280;26021;45.640;11.302;2023-03-19T14:12:20;98878.06;;;14.13;76.72
40315;BME280;26021;45.640;11.302;2023-03-19T14:14:53;98936.56;;;14.39;77.87
40315;BME280;26021;45.640;11.302;2023-03-19T14:17:24;98952.56;;;14.47;77.17
40315;BME280;26021;45.640;11.302;2023-03-19T14:19:51;98909.53;;;14.19;78.94